Time;durP1;ratioP1;P1;durP2;ratioP2;P2;SDS_P1;SDS_P2;PMS_P1;PMS_P2;Temp;Humidity;BMP_temperature;BMP_pressure;BME280_temperature;BME280_humidity;BME280_pressure;Samples;Min_cycle;Max_cycle;Signal;HPM_P1;HPM_P2
2024/03/06 00:01:34;;;;;;;26.30;17.90;;;;;;;3.20;84.19;101364.94;103161;1295;25457;-58
2024/03/06 00:03:59;;;;;;;22.70;16.90;;;;;;;3.14;83.88;101363.05;103247;1307;25432;-59
2024/03/06 00:06:25;;;;;;;27.40;18.60;;;;;;;3.07;83.71;101363.24;103380;1304;23453;-59
2024/03/06 00:08:51;;;;;;;25.10;17.30;;;;;;;2.98;83.75;101362.16;103212;1301;26657;-59
2024/03/06 00:11:17;;;;;;;25.60;18.00;;;;;;;2.96;84.09;101366.37;102985;1297;22646;-59
2024/03/06 00:13:43;;;;;;;25.70;17.70;;;;;;;2.97;83.86;101364.33;103244;1307;24433;-60
2024/03/06 00:16:08;;;;;;;20.40;14.50;;;;;;;2.92;83.79;101362.68;103157;1300;22627;-59
2024/03/06 00:18:34;;;;;;;28.90;19.90;;;;;;;2.86;84.03;101368.98;103036;1292;22643;-58
2024/03/06 00:21:00;;;;;;;26.40;17.80;;;;;;;2.79;83.96;101370.98;103233;1291;22603;-58
2024/03/06 00:23:26;;;;;;;25.70;18.10;;;;;;;2.69;83.96;101380.73;103178;1299;24132;-59
2024/03/06 00:25:51;;;;;;;22.70;16.50;;;;;;;2.63;83.96;101382.29;103227;1315;22708;-59
2024/03/06 00:28:17;;;;;;;23.00;16.80;;;;;;;2.60;84.02;101384.27;103198;1314;22621;-60
2024/03/06 00:30:42;;;;;;;22.80;16.40;;;;;;;2.55;84.03;101384.47;103202;1295;24398;-59
2024/03/06 00:33:08;;;;;;;21.70;16.00;;;;;;;2.51;84.09;101390.15;103155;1307;25531;-60
2024/03/06 00:35:33;;;;;;;26.60;16.50;;;;;;;2.46;83.97;101391.86;103094;1313;25409;-60
2024/03/06 00:38:02;;;;;;;22.20;15.50;;;;;;;2.38;83.89;101391.95;103178;1315;22652;-59
2024/03/06 00:40:31;;;;;;;24.80;15.30;;;;;;;2.31;83.78;101396.52;103506;1292;22568;-61
2024/03/06 00:42:58;;;;;;;21.30;14.50;;;;;;;2.22;83.59;101398.98;103200;1314;22581;-59
2024/03/06 00:45:24;;;;;;;19.30;11.60;;;;;;;2.15;83.80;101400.45;103312;1314;22673;-59
2024/03/06 00:47:50;;;;;;;23.80;15.70;;;;;;;2.10;83.89;101403.20;103242;1314;22569;-59
2024/03/06 00:50:16;;;;;;;24.90;16.60;;;;;;;2.08;83.94;101406.52;103166;1301;24303;-59
2024/03/06 00:52:42;;;;;;;;;;;;;;;2.06;84.02;101407.52;103234;1297;22816;-59
2024/03/06 00:55:09;;;;;;;19.40;14.20;;;;;;;2.04;84.15;101412.21;103111;1310;22571;-60
2024/03/06 00:57:35;;;;;;;24.20;15.10;;;;;;;2.01;84.00;101407.02;103351;1315;25273;-59
2024/03/06 01:00:08;;;;;;;26.70;16.90;;;;;;;1.98;83.84;101411.00;103485;1315;22651;-60
2024/03/06 01:02:38;;;;;;;24.20;16.50;;;;;;;1.92;83.96;101413.36;103038;1298;22917;-59
2024/03/06 01:05:04;;;;;;;21.80;12.60;;;;;;;1.87;84.09;101414.06;103177;1310;22614;-60
2024/03/06 01:07:31;;;;;;;23.00;14.60;;;;;;;1.81;84.02;101414.39;103177;1301;22776;-60
2024/03/06 01:09:57;;;;;;;21.60;14.70;;;;;;;1.77;84.06;101413.90;103209;1314;25278;-59
2024/03/06 01:12:25;;;;;;;21.80;15.80;;;;;;;1.76;84.12;101415.58;102992;1298;24282;-59
2024/03/06 01:14:51;;;;;;;25.80;17.20;;;;;;;1.75;84.21;101417.58;103176;1315;22643;-59
2024/03/06 01:17:16;;;;;;;24.20;15.90;;;;;;;1.77;84.23;101415.92;103217;1310;25373;-59
2024/03/06 01:19:45;;;;;;;22.80;15.80;;;;;;;1.78;84.10;101419.02;103156;1315;25858;-60
2024/03/06 01:22:13;;;;;;;27.40;18.10;;;;;;;1.75;84.16;101422.67;103013;1293;22562;-60
2024/03/06 01:24:39;;;;;;;20.60;15.20;;;;;;;1.69;84.34;101421.45;103118;1300;22584;-59
2024/03/06 01:27:05;;;;;;;19.50;13.60;;;;;;;1.64;84.34;101424.85;103083;1314;22563;-59
2024/03/06 01:29:30;;;;;;;25.80;15.80;;;;;;;1.63;84.27;101424.31;103394;1308;22645;-59
2024/03/06 01:31:56;;;;;;;29.30;18.10;;;;;;;1.66;84.19;101425.60;103184;1308;22781;-57
2024/03/06 01:34:22;;;;;;;32.00;19.40;;;;;;;1.68;84.22;101426.17;103145;1315;22592;-60
2024/03/06 01:36:47;;;;;;;24.30;16.80;;;;;;;1.70;84.07;101422.16;102964;1312;24499;-60
2024/03/06 01:39:13;;;;;;;25.40;17.20;;;;;;;1.71;83.98;101426.61;103126;1315;23448;-60
2024/03/06 01:41:46;;;;;;;26.80;18.50;;;;;;;1.73;84.31;101428.21;103204;1292;22898;-59
2024/03/06 01:44:12;;;;;;;28.10;18.10;;;;;;;1.76;84.16;101433.40;103153;1307;25447;-60
2024/03/06 01:46:38;;;;;;;24.50;17.20;;;;;;;1.78;84.37;101436.04;103123;1301;22713;-59
2024/03/06 01:49:04;;;;;;;24.60;17.10;;;;;;;1.80;84.29;101438.30;103189;1315;24289;-59
2024/03/06 01:51:30;;;;;;;25.00;17.40;;;;;;;1.81;83.95;101436.30;103505;1314;22636;-60
2024/03/06 01:53:57;;;;;;;25.70;17.70;;;;;;;1.82;84.37;101440.23;103175;1296;25410;-58
2024/03/06 01:56:23;;;;;;;;;;;;;;;1.83;84.43;101439.75;103185;1315;22549;-60
2024/03/06 01:58:49;;;;;;;26.40;17.20;;;;;;;1.83;84.56;101441.81;103098;1315;24249;-60
2024/03/06 02:01:17;;;;;;;28.60;18.10;;;;;;;1.83;84.36;101445.05;103143;1313;22687;-60
2024/03/06 02:03:44;;;;;;;25.40;16.10;;;;;;;1.82;84.19;101445.00;103727;1298;228046;-60
2024/03/06 02:06:11;;;;;;;23.70;16.30;;;;;;;1.81;84.15;101446.32;103235;1308;25312;-58
2024/03/06 02:08:37;;;;;;;28.90;18.70;;;;;;;1.81;83.99;101447.67;103118;1307;22790;-59
2024/03/06 02:11:03;;;;;;;25.50;17.60;;;;;;;1.79;84.20;101446.27;103164;1313;26230;-59
2024/03/06 02:13:29;;;;;;;29.50;17.20;;;;;;;1.77;84.79;101446.53;103094;1297;22675;-60
2024/03/06 02:15:55;;;;;;;32.10;17.80;;;;;;;1.75;84.64;101444.41;103156;1307;22574;-59
2024/03/06 02:18:21;;;;;;;26.10;18.10;;;;;;;1.77;84.29;101443.96;99819;1306;5004009;-60
2024/03/06 02:20:47;;;;;;;24.60;16.40;;;;;;;1.79;84.21;101445.09;104283;1308;27213;-60
2024/03/06 02:23:14;;;;;;;23.60;17.50;;;;;;;1.80;84.39;101445.26;103112;1297;25322;-59
2024/03/06 02:25:41;;;;;;;29.80;17.80;;;;;;;1.78;84.59;101450.31;103392;1314;22605;-60
2024/03/06 02:28:06;;;;;;;;;;;;;;;1.81;84.97;101448.55;103737;1313;22813;-60
2024/03/06 02:30:36;;;;;;;24.20;17.30;;;;;;;1.86;84.97;101448.88;103169;1314;22727;-60
2024/03/06 02:33:03;;;;;;;26.80;17.00;;;;;;;1.90;85.06;101447.46;103592;1315;22578;-59
2024/03/06 02:35:30;;;;;;;27.10;18.40;;;;;;;1.94;85.08;101449.98;104307;1313;22685;-60
2024/03/06 02:37:58;;;;;;;27.50;18.60;;;;;;;1.98;85.03;101450.13;103148;1300;22836;-59
2024/03/06 02:40:24;;;;;;;28.40;19.30;;;;;;;2.03;85.09;101456.23;103050;1307;25618;-59
2024/03/06 02:42:50;;;;;;;28.30;18.40;;;;;;;2.07;85.16;101454.64;103122;1295;25174;-60
2024/03/06 02:45:15;;;;;;;25.60;16.80;;;;;;;2.11;85.14;101456.79;103198;1315;22715;-60
2024/03/06 02:47:41;;;;;;;27.00;17.20;;;;;;;2.11;84.55;101455.94;103168;1301;22578;-58
2024/03/06 02:50:07;;;;;;;25.60;18.60;;;;;;;2.07;84.58;101456.33;103202;1315;22563;-60
2024/03/06 02:52:33;;;;;;;28.70;18.70;;;;;;;2.06;84.90;101457.17;103376;1310;24389;-60
2024/03/06 02:54:59;;;;;;;26.60;18.00;;;;;;;2.09;85.03;101456.39;103223;1294;26599;-59
2024/03/06 02:57:28;;;;;;;26.10;17.80;;;;;;;2.10;84.80;101456.76;103029;1315;22632;-60
2024/03/06 02:59:56;;;;;;;28.00;19.10;;;;;;;2.09;84.82;101454.17;103132;1314;22569;-59
2024/03/06 03:02:22;;;;;;;24.00;17.60;;;;;;;2.11;85.08;101459.02;103212;1300;22708;-60
2024/03/06 03:04:47;;;;;;;27.10;18.70;;;;;;;2.15;85.13;101458.61;103027;1315;22582;-59
2024/03/06 03:07:13;;;;;;;25.60;18.40;;;;;;;2.15;85.34;101458.94;103213;1314;25504;-59
2024/03/06 03:09:38;;;;;;;23.00;15.80;;;;;;;2.14;85.10;101459.77;103121;1301;22742;-60
2024/03/06 03:12:04;;;;;;;25.60;18.40;;;;;;;2.14;84.83;101459.60;103204;1315;23052;-60
2024/03/06 03:14:30;;;;;;;23.60;17.40;;;;;;;2.13;84.82;101463.48;103340;1298;22569;-59
2024/03/06 03:16:55;;;;;;;25.30;17.50;;;;;;;2.13;85.00;101461.78;103138;1310;22681;-59
2024/03/06 03:19:21;;;;;;;26.60;17.60;;;;;;;2.12;85.16;101459.36;102996;1314;25723;-59
2024/03/06 03:21:47;;;;;;;26.60;17.50;;;;;;;2.12;85.24;101463.45;103250;1315;25367;-61
2024/03/06 03:24:12;;;;;;;27.40;18.40;;;;;;;2.12;85.47;101462.26;103048;1298;24018;-60
2024/03/06 03:26:38;;;;;;;26.40;18.10;;;;;;;2.13;85.73;101466.02;103178;1298;22935;-58
2024/03/06 03:29:03;;;;;;;28.80;19.90;;;;;;;2.19;85.86;101469.30;103175;1301;22568;-59
2024/03/06 03:31:29;;;;;;;30.20;20.90;;;;;;;2.24;85.82;101473.55;103174;1315;23434;-61
2024/03/06 03:33:55;;;;;;;32.90;20.30;;;;;;;2.29;85.74;101476.41;103254;1292;22603;-61
2024/03/06 03:36:20;;;;;;;31.20;20.30;;;;;;;2.32;85.91;101473.29;103172;1301;23940;-61
2024/03/06 03:38:46;;;;;;;31.00;21.00;;;;;;;2.37;85.90;101471.38;102929;1314;22579;-57
2024/03/06 03:41:12;;;;;;;30.20;19.10;;;;;;;2.38;85.63;101472.44;103178;1308;24464;-59
2024/03/06 03:43:39;;;;;;;27.80;18.10;;;;;;;2.38;85.31;101469.55;103818;1315;22572;-59
2024/03/06 03:46:06;;;;;;;25.80;17.70;;;;;;;2.37;85.39;101468.16;103220;1306;22636;-59
2024/03/06 03:48:31;;;;;;;26.90;19.20;;;;;;;2.36;85.62;101471.00;103172;1315;23267;-62
2024/03/06 03:50:57;;;;;;;32.30;20.40;;;;;;;2.38;85.95;101474.80;103186;1315;23986;-59
2024/03/06 03:53:23;;;;;;;30.30;21.00;;;;;;;2.40;85.97;101472.34;103076;1315;22951;-59
2024/03/06 03:55:48;;;;;;;29.90;20.90;;;;;;;2.43;86.02;101474.48;103136;1297;22776;-60
2024/03/06 03:58:14;;;;;;;34.10;20.60;;;;;;;2.44;86.07;101474.52;103220;1315;22934;-59
2024/03/06 04:00:39;;;;;;;25.30;18.30;;;;;;;2.44;85.86;101473.49;103199;1315;22745;-60
2024/03/06 04:03:05;;;;;;;24.90;18.00;;;;;;;2.44;85.78;101471.95;103215;1311;26678;-58
2024/03/06 04:05:31;;;;;;;29.50;18.30;;;;;;;2.41;85.88;101472.35;103240;1298;22587;-60
2024/03/06 04:07:57;;;;;;;28.50;19.40;;;;;;;2.39;86.14;101472.98;103204;1315;22691;-60
2024/03/06 04:10:22;;;;;;;27.70;18.30;;;;;;;2.40;86.28;101474.02;103017;1311;22591;-59
2024/03/06 04:12:48;;;;;;;30.90;20.70;;;;;;;2.44;86.30;101477.21;103120;1315;25408;-60
2024/03/06 04:15:14;;;;;;;29.90;18.10;;;;;;;2.47;86.14;101479.70;102996;1298;26358;-59
2024/03/06 04:17:40;;;;;;;28.90;18.50;;;;;;;2.47;86.51;101479.02;103723;1309;23422;-60
2024/03/06 04:20:07;;;;;;;28.70;19.50;;;;;;;2.42;86.80;101480.57;103247;1314;22577;-60
2024/03/06 04:22:33;;;;;;;26.90;19.50;;;;;;;2.37;86.69;101482.80;103179;1301;22588;-59
2024/03/06 04:24:58;;;;;;;28.30;18.50;;;;;;;2.38;86.77;101482.48;103127;1293;23943;-58
2024/03/06 04:27:25;;;;;;;34.80;21.60;;;;;;;2.42;86.86;101482.27;103003;1310;22829;-58
2024/03/06 04:29:52;;;;;;;29.40;20.90;;;;;;;2.45;86.62;101478.27;103264;1314;22696;-59
2024/03/06 04:32:18;;;;;;;31.00;19.80;;;;;;;2.43;87.05;101479.93;102990;1315;23976;-59
2024/03/06 04:34:43;;;;;;;28.50;18.70;;;;;;;2.39;87.13;101484.20;103185;1301;22561;-60
2024/03/06 04:37:09;;;;;;;28.80;19.40;;;;;;;2.33;86.48;101485.73;103118;1298;22903;-59
2024/03/06 04:39:34;;;;;;;33.40;20.70;;;;;;;2.30;86.71;101483.93;103133;1315;23365;-61
2024/03/06 04:42:00;;;;;;;29.50;20.50;;;;;;;2.27;86.64;101490.47;103163;1313;25283;-60
2024/03/06 04:44:25;;;;;;;31.40;20.80;;;;;;;2.26;86.54;101495.72;103178;1315;22594;-60
2024/03/06 04:46:51;;;;;;;30.40;20.40;;;;;;;2.28;86.76;101501.74;102964;1315;24866;-60
2024/03/06 04:49:16;;;;;;;36.50;21.20;;;;;;;2.30;86.90;101501.47;103100;1315;22588;-60
2024/03/06 04:51:42;;;;;;;31.10;19.50;;;;;;;2.34;86.78;101500.91;103144;1308;22674;-60
2024/03/06 04:54:08;;;;;;;25.60;18.70;;;;;;;2.36;86.39;101501.31;103203;1315;25428;-60
2024/03/06 04:56:34;;;;;;;32.60;20.30;;;;;;;2.35;86.29;101502.48;103151;1296;22879;-59
2024/03/06 04:59:03;;;;;;;30.00;19.70;;;;;;;2.32;86.54;101498.80;103132;1292;22728;-59
2024/03/06 05:01:29;;;;;;;30.80;19.40;;;;;;;2.30;86.83;101501.30;103126;1307;22746;-60
2024/03/06 05:03:55;;;;;;;28.00;20.20;;;;;;;2.31;86.84;101507.79;103125;1309;22695;-59
2024/03/06 05:06:22;;;;;;;33.20;21.60;;;;;;;2.35;86.89;101507.90;103155;1295;24262;-58
2024/03/06 05:08:48;;;;;;;33.70;22.50;;;;;;;2.39;86.73;101510.76;103416;1308;25591;-59
2024/03/06 05:11:14;;;;;;;34.70;21.10;;;;;;;2.40;86.81;101515.38;103075;1314;23350;-59
2024/03/06 05:13:39;;;;;;;32.00;21.70;;;;;;;2.39;86.75;101521.64;103216;1307;25248;-58
2024/03/06 05:16:06;;;;;;;37.30;23.60;;;;;;;2.40;86.71;101526.97;103019;1306;22596;-60
2024/03/06 05:18:34;;;;;;;37.10;24.00;;;;;;;2.44;86.89;101524.02;105148;1309;22699;-58
2024/03/06 05:21:00;;;;;;;36.40;22.90;;;;;;;2.49;86.93;101524.33;103031;1301;22578;-59
2024/03/06 05:23:25;;;;;;;33.10;22.70;;;;;;;2.52;86.87;101523.59;103126;1309;24296;-60
2024/03/06 05:25:50;;;;;;;40.80;24.00;;;;;;;2.53;86.84;101526.53;103150;1301;22563;-60
2024/03/06 05:28:16;;;;;;;34.80;22.70;;;;;;;2.56;86.90;101530.70;103167;1305;25635;-59
2024/03/06 05:30:41;;;;;;;35.80;23.00;;;;;;;2.59;86.93;101530.63;103141;1308;25348;-59
2024/03/06 05:33:07;;;;;;;32.80;21.60;;;;;;;2.58;86.46;101530.42;103133;1307;22982;-60
2024/03/06 05:35:32;;;;;;;31.80;22.30;;;;;;;2.54;86.67;101532.85;103235;1308;25401;-58
2024/03/06 05:37:58;;;;;;;32.60;21.30;;;;;;;2.55;86.72;101537.48;103039;1300;23243;-58
2024/03/06 05:40:23;;;;;;;36.90;23.00;;;;;;;2.56;86.95;101536.83;103018;1310;22641;-59
2024/03/06 05:42:49;;;;;;;38.00;23.20;;;;;;;2.57;86.86;101533.82;103164;1315;22561;-60
2024/03/06 05:45:14;;;;;;;37.90;23.00;;;;;;;2.59;86.93;101541.00;103163;1311;25756;-59
2024/03/06 05:47:41;;;;;;;32.30;22.30;;;;;;;2.62;87.09;101543.30;103116;1301;22664;-59
2024/03/06 05:50:07;;;;;;;33.00;22.60;;;;;;;2.67;87.15;101540.52;103086;1313;25456;-59
2024/03/06 05:52:33;;;;;;;35.10;22.50;;;;;;;2.70;86.81;101541.48;103117;1314;22570;-59
2024/03/06 05:54:59;;;;;;;41.70;23.40;;;;;;;2.69;86.72;101538.89;104710;1308;22909;-60
2024/03/06 05:57:25;;;;;;;37.00;21.70;;;;;;;2.66;86.85;101543.91;103147;1296;22718;-58
2024/03/06 05:59:51;;;;;;;36.70;22.60;;;;;;;2.64;86.90;101545.05;102933;1314;29191;-61
2024/03/06 06:02:16;;;;;;;32.50;22.00;;;;;;;2.65;87.20;101539.98;103051;1294;26830;-60
2024/03/06 06:04:42;;;;;;;38.40;24.50;;;;;;;2.63;87.41;101546.55;103048;1297;22692;-59
2024/03/06 06:07:08;;;;;;;42.50;24.50;;;;;;;2.66;87.59;101547.84;103028;1298;25369;-59
2024/03/06 06:09:33;;;;;;;42.40;24.10;;;;;;;2.70;87.30;101545.05;103074;1301;25530;-61
2024/03/06 06:11:59;;;;;;;44.10;25.50;;;;;;;2.74;87.46;101549.46;103088;1315;23053;-61
2024/03/06 06:14:27;;;;;;;38.70;24.10;;;;;;;2.82;87.59;101549.02;103037;1301;22587;-60
2024/03/06 06:16:52;;;;;;;33.00;21.90;;;;;;;2.88;87.29;101550.40;107127;1295;22439;-61
2024/03/06 06:19:18;;;;;;;40.10;23.80;;;;;;;2.90;87.27;101550.45;106889;1298;22306;-62
2024/03/06 06:21:43;;;;;;;33.80;21.80;;;;;;;2.91;87.28;101553.20;106872;1307;23283;-62
2024/03/06 06:24:09;;;;;;;43.00;22.80;;;;;;;2.95;87.56;101553.48;102923;1315;24308;-62
2024/03/06 06:26:34;;;;;;;35.50;23.10;;;;;;;3.05;87.80;101556.02;103008;1300;22611;-60
2024/03/06 06:29:00;;;;;;;36.10;23.00;;;;;;;3.16;87.82;101557.33;103064;1298;24444;-61
2024/03/06 06:31:26;;;;;;;36.50;23.00;;;;;;;3.25;87.63;101557.42;103034;1316;22590;-61
2024/03/06 06:33:53;;;;;;;35.70;22.60;;;;;;;3.29;87.58;101558.90;107098;1315;22433;-60
2024/03/06 06:36:24;;;;;;;34.30;22.30;;;;;;;3.36;87.66;101563.02;106861;1315;25355;-61
2024/03/06 06:38:49;;;;;;;30.70;21.00;;;;;;;3.43;87.64;101563.55;105666;1299;22700;-60
2024/03/06 06:41:17;;;;;;;36.10;22.20;;;;;;;3.49;87.83;101568.15;103143;1315;22565;-60
2024/03/06 06:43:42;;;;;;;33.20;20.80;;;;;;;3.52;87.89;101568.24;107066;1307;22412;-61
2024/03/06 06:46:08;;;;;;;28.50;20.90;;;;;;;3.55;87.56;101567.30;106922;1311;25477;-60
2024/03/06 06:48:34;;;;;;;29.00;20.30;;;;;;;3.55;87.54;101566.63;103141;1305;22959;-61
2024/03/06 06:51:02;;;;;;;29.70;21.00;;;;;;;3.60;87.92;101568.98;103050;1315;24298;-59
2024/03/06 06:53:31;;;;;;;29.70;20.50;;;;;;;3.66;87.97;101572.02;103166;1315;22714;-61
2024/03/06 06:55:57;;;;;;;28.00;21.10;;;;;;;3.73;87.87;101574.75;103076;1302;22562;-61
2024/03/06 06:58:23;;;;;;;31.80;21.50;;;;;;;3.77;87.80;101576.23;103123;1308;25503;-58
2024/03/06 07:00:48;;;;;;;34.20;22.10;;;;;;;3.77;87.94;101576.23;103142;1310;24520;-61
2024/03/06 07:03:14;;;;;;;37.30;23.50;;;;;;;3.84;88.18;101579.85;103093;1314;22596;-60
2024/03/06 07:05:41;;;;;;;36.30;22.90;;;;;;;3.90;88.10;101580.52;103019;1316;25217;-61
2024/03/06 07:08:07;;;;;;;35.70;23.50;;;;;;;3.97;88.09;101584.46;102981;1292;24743;-60
2024/03/06 07:10:32;;;;;;;35.20;22.50;;;;;;;3.99;88.00;101586.91;103031;1315;22600;-60
2024/03/06 07:12:58;;;;;;;41.70;24.50;;;;;;;4.06;88.24;101593.22;103036;1296;22886;-61
2024/03/06 07:15:23;;;;;;;35.00;23.90;;;;;;;4.11;88.27;101588.58;102768;1292;22621;-60
2024/03/06 07:17:49;;;;;;;43.90;24.30;;;;;;;4.15;88.26;101590.05;103016;1315;22615;-60
2024/03/06 07:20:14;;;;;;;40.00;24.50;;;;;;;4.21;88.25;101591.88;102773;1297;24228;-60
2024/03/06 07:22:40;;;;;;;36.20;23.80;;;;;;;4.24;88.04;101596.06;102999;1312;23430;-60
2024/03/06 07:25:06;;;;;;;42.40;25.00;;;;;;;4.25;88.04;101592.15;103034;1310;24300;-61
2024/03/06 07:27:31;;;;;;;37.60;25.00;;;;;;;4.29;88.19;101585.43;102971;1315;22580;-60
2024/03/06 07:29:57;;;;;;;42.00;24.80;;;;;;;4.37;88.21;101588.52;102982;1297;22850;-61
2024/03/06 07:32:22;;;;;;;46.70;26.90;;;;;;;4.39;88.08;101587.05;103004;1315;22572;-61
2024/03/06 07:34:48;;;;;;;40.70;26.10;;;;;;;4.44;88.18;101588.38;103026;1315;22583;-61
2024/03/06 07:37:14;;;;;;;44.40;24.90;;;;;;;4.49;88.34;101590.53;102947;1314;24320;-60
2024/03/06 07:39:40;;;;;;;50.20;27.40;;;;;;;4.52;88.14;101593.17;102966;1308;22624;-60
2024/03/06 07:42:06;;;;;;;42.80;26.00;;;;;;;4.56;88.24;101604.89;102898;1315;22701;-61
2024/03/06 07:44:31;;;;;;;46.60;28.10;;;;;;;4.58;88.14;101603.24;102797;1315;25340;-61
2024/03/06 07:46:56;;;;;;;52.00;29.80;;;;;;;4.58;88.09;101596.91;102887;1313;22629;-61
2024/03/06 07:49:22;;;;;;;51.90;30.40;;;;;;;4.60;88.22;101598.16;102899;1308;22671;-61
2024/03/06 07:51:48;;;;;;;50.90;30.70;;;;;;;4.66;88.31;101606.83;102954;1311;22592;-61
2024/03/06 07:54:13;;;;;;;46.70;29.90;;;;;;;4.69;88.10;101616.77;102979;1308;22838;-60
2024/03/06 07:56:39;;;;;;;46.70;29.50;;;;;;;4.71;88.11;101623.48;102966;1311;25441;-59
2024/03/06 07:59:08;;;;;;;52.80;31.90;;;;;;;4.72;88.12;101618.91;102966;1293;24258;-65
2024/03/06 08:01:34;;;;;;;52.80;31.70;;;;;;;4.72;88.10;101620.60;103014;1308;22730;-63
2024/03/06 08:04:00;;;;;;;51.70;30.60;;;;;;;4.75;88.23;101618.79;102968;1308;24142;-62
2024/03/06 08:06:26;;;;;;;62.00;33.60;;;;;;;4.82;88.43;101627.70;102894;1315;24269;-61
2024/03/06 08:08:52;;;;;;;68.70;42.60;;;;;;;4.87;88.55;101627.98;103036;1311;25572;-61
2024/03/06 08:11:17;;;;;;;66.90;39.20;;;;;;;4.91;88.59;101622.62;102907;1297;22690;-61
2024/03/06 08:13:43;;;;;;;56.40;34.30;;;;;;;5.01;88.52;101622.15;103004;1312;24310;-61
2024/03/06 08:16:09;;;;;;;64.80;33.20;;;;;;;5.05;88.41;101618.15;102944;1308;22623;-60
2024/03/06 08:18:36;;;;;;;53.80;29.10;;;;;;;5.11;88.41;101611.61;102942;1313;26555;-60
2024/03/06 08:21:05;;;;;;;49.70;29.40;;;;;;;5.13;88.37;101614.73;102966;1305;25316;-61
2024/03/06 08:23:31;;;;;;;51.80;30.50;;;;;;;5.19;88.43;101617.93;103055;1305;22599;-60
2024/03/06 08:25:56;;;;;;;56.70;31.50;;;;;;;5.24;88.42;101623.84;103023;1311;24350;-60
2024/03/06 08:28:22;;;;;;;55.40;30.90;;;;;;;5.28;88.58;101631.96;103055;1310;25383;-62
2024/03/06 08:30:47;;;;;;;68.10;35.30;;;;;;;5.30;88.57;101628.92;102915;1300;22820;-62
2024/03/06 08:33:13;;;;;;;61.90;34.30;;;;;;;5.30;88.59;101628.08;102944;1308;22575;-62
2024/03/06 08:35:39;;;;;;;62.10;31.90;;;;;;;5.32;88.67;101633.41;102825;1314;22716;-61
2024/03/06 08:38:06;;;;;;;61.50;31.10;;;;;;;5.35;88.76;101637.05;102935;1307;22553;-62
2024/03/06 08:40:32;;;;;;;55.80;30.20;;;;;;;5.32;88.89;101643.00;102998;1299;24549;-62
2024/03/06 08:42:58;;;;;;;64.10;31.90;;;;;;;5.29;88.92;101642.93;103239;1308;25779;-62
2024/03/06 08:45:24;;;;;;;58.30;31.90;;;;;;;5.31;88.88;101645.20;103041;1315;24285;-62
2024/03/06 08:47:49;;;;;;;55.20;30.30;;;;;;;5.33;88.75;101640.63;102966;1315;22585;-62
2024/03/06 08:50:16;;;;;;;59.70;32.30;;;;;;;5.35;88.83;101643.23;102853;1292;22614;-61
2024/03/06 08:52:42;;;;;;;56.00;29.80;;;;;;;5.36;88.84;101642.39;103037;1308;23655;-61
2024/03/06 08:55:09;;;;;;;57.90;29.20;;;;;;;5.39;88.77;101641.95;103015;1314;22926;-62
2024/03/06 08:57:35;;;;;;;58.60;31.00;;;;;;;5.41;88.77;101643.88;104148;1310;25399;-62
2024/03/06 09:00:01;;;;;;;54.20;28.80;;;;;;;5.42;88.84;101647.98;102888;1292;26128;-61
2024/03/06 09:02:27;;;;;;;56.30;29.20;;;;;;;5.40;88.71;101646.73;103992;1298;272803;-61
2024/03/06 09:04:53;;;;;;;51.30;27.50;;;;;;;5.40;88.83;101650.34;103053;1314;25238;-62
2024/03/06 09:07:19;;;;;;;52.20;27.90;;;;;;;5.40;88.82;101652.23;105313;1307;345896;-61
2024/03/06 09:09:45;;;;;;;48.10;27.80;;;;;;;5.44;88.88;101649.05;102867;1314;22568;-61
2024/03/06 09:12:11;;;;;;;52.20;27.20;;;;;;;5.45;88.79;101648.41;102807;1306;25466;-62
2024/03/06 09:14:38;;;;;;;50.80;28.20;;;;;;;5.48;88.86;101648.81;102741;1307;25363;-61
2024/03/06 09:17:04;;;;;;;54.90;29.60;;;;;;;5.53;89.00;101648.40;102813;1312;24345;-62
2024/03/06 09:19:30;;;;;;;53.20;28.90;;;;;;;5.54;89.03;101652.36;102840;1314;22768;-61
2024/03/06 09:21:56;;;;;;;60.70;34.20;;;;;;;5.56;88.93;101651.21;102832;1307;22643;-60
2024/03/06 09:24:23;;;;;;;53.30;27.90;;;;;;;5.59;88.99;101651.77;106960;1314;22504;-62
2024/03/06 09:26:49;;;;;;;58.40;31.80;;;;;;;5.66;89.14;101650.55;106876;1316;22409;-62
2024/03/06 09:29:15;;;;;;;55.40;28.10;;;;;;;5.75;89.18;101652.95;106891;1301;22476;-62
2024/03/06 09:31:42;;;;;;;49.00;27.10;;;;;;;5.83;89.09;101655.16;105634;1294;24846;-62
2024/03/06 09:34:07;;;;;;;62.70;35.10;;;;;;;5.89;88.95;101658.37;102947;1315;22597;-62
2024/03/06 09:36:33;;;;;;;73.60;39.10;;;;;;;5.87;88.85;101662.42;102842;1314;24294;-62
2024/03/06 09:38:59;;;;;;;58.60;31.60;;;;;;;5.88;89.10;101662.96;102863;1302;26559;-62
2024/03/06 09:41:25;;;;;;;51.00;27.90;;;;;;;5.90;89.07;101663.37;102834;1298;24038;-61
2024/03/06 09:43:51;;;;;;;49.50;27.90;;;;;;;5.90;89.03;101665.59;102794;1308;22758;-62
2024/03/06 09:46:17;;;;;;;52.00;30.50;;;;;;;5.87;88.98;101666.36;102871;1302;24425;-61
2024/03/06 09:48:47;;;;;;;;;;;;;;;5.86;89.07;101668.21;102902;1301;22662;-61
2024/03/06 09:51:13;;;;;;;61.70;32.70;;;;;;;5.82;89.08;101666.44;102961;1291;22920;-62
2024/03/06 09:53:40;;;;;;;65.10;33.40;;;;;;;5.84;89.24;101669.73;102819;1314;22601;-62
2024/03/06 09:56:06;;;;;;;75.90;36.30;;;;;;;5.84;89.37;101670.23;102797;1301;22565;-62
2024/03/06 09:58:32;;;;;;;79.00;39.20;;;;;;;5.85;89.37;101674.20;106986;1307;23053;-63
2024/03/06 10:01:03;;;;;;;62.00;33.80;;;;;;;5.89;89.46;101675.16;107049;1308;23315;-62
2024/03/06 10:03:29;;;;;;;66.60;35.50;;;;;;;5.93;89.44;101674.05;107036;1295;22598;-63
2024/03/06 10:05:55;;;;;;;52.90;31.00;;;;;;;5.96;89.36;101672.40;107061;1308;23027;-62
2024/03/06 10:08:22;;;;;;;51.80;30.70;;;;;;;5.95;89.45;101672.02;106934;1299;22351;-60
2024/03/06 10:10:49;;;;;;;52.50;32.80;;;;;;;5.92;89.40;101677.28;107123;1299;23105;-60
2024/03/06 10:13:18;;;;;;;56.00;33.30;;;;;;;5.91;89.48;101677.08;106791;1306;22628;-59
2024/03/06 10:16:01;;;;;;;61.90;36.20;;;;;;;5.93;89.71;101678.50;103107;1308;22566;-61
2024/03/06 10:18:32;;;;;;;55.70;31.60;;;;;;;6.00;89.80;101676.74;102917;1295;25432;-61
2024/03/06 10:20:58;;;;;;;51.40;29.70;;;;;;;6.07;89.90;101679.11;102979;1315;22582;-62
2024/03/06 10:23:24;;;;;;;49.20;29.50;;;;;;;6.10;89.73;101677.63;102926;1296;22639;-61
2024/03/06 10:25:52;;;;;;;52.50;29.50;;;;;;;6.13;89.81;101681.45;102806;1316;25827;-62
2024/03/06 10:28:22;;;;;;;51.60;31.10;;;;;;;6.15;89.70;101680.11;106798;1307;22247;-62
2024/03/06 10:30:50;;;;;;;52.60;31.60;;;;;;;6.18;89.92;101680.02;106977;1304;22252;-62
2024/03/06 10:33:20;;;;;;;49.40;31.10;;;;;;;6.23;89.87;101679.91;104480;1297;374206;-61
2024/03/06 10:35:48;;;;;;;50.40;29.80;;;;;;;6.24;89.77;101678.56;102926;1301;22575;-61
2024/03/06 10:38:14;;;;;;;47.10;29.30;;;;;;;6.27;89.93;101678.96;102677;1293;25398;-61
2024/03/06 10:40:42;;;;;;;50.60;31.00;;;;;;;6.31;89.93;101681.94;102849;1292;24540;-60
2024/03/06 10:43:09;;;;;;;48.20;31.20;;;;;;;6.31;89.96;101680.05;102784;1294;22565;-59
2024/03/06 10:45:47;;;;;;;50.00;30.20;;;;;;;6.37;90.17;101678.63;102853;1301;22578;-61
2024/03/06 10:48:14;;;;;;;51.00;30.60;;;;;;;6.43;90.14;101678.22;102836;1301;22599;-61
2024/03/06 10:50:43;;;;;;;75.20;48.90;;;;;;;6.46;90.05;101677.60;102857;1301;22564;-61
2024/03/06 10:53:18;;;;;;;55.30;37.50;;;;;;;6.52;90.09;101677.88;102802;1301;24365;-60
2024/03/06 10:55:45;;;;;;;49.30;30.70;;;;;;;6.57;90.21;101678.65;102786;1313;22573;-61
2024/03/06 10:58:11;;;;;;;50.80;31.50;;;;;;;6.63;90.21;101678.58;102819;1301;24240;-61
2024/03/06 11:00:42;;;;;;;44.80;29.80;;;;;;;6.65;90.27;101678.61;102832;1292;22574;-61
2024/03/06 11:03:11;;;;;;;52.70;33.50;;;;;;;6.68;90.15;101681.06;102778;1296;24333;-61
2024/03/06 11:05:45;;;;;;;56.50;31.10;;;;;;;6.69;90.24;101678.69;102812;1292;22573;-60